Time;durP1;ratioP1;P1;durP2;ratioP2;P2;SDS_P1;SDS_P2;PMS_P1;PMS_P2;Temp;Humidity;BMP_temperature;BMP_pressure;BME280_temperature;BME280_humidity;BME280_pressure;Samples;Min_cycle;Max_cycle;Signal;HPM_P1;HPM_P2
2022/07/03 00:01:25;;;;;;;6.93;3.92;;;;;;;23.33;36.60;99483.50;5075486;28;20395;-71
2022/07/03 00:03:50;;;;;;;5.78;3.63;;;;;;;23.34;36.97;99487.06;5075102;28;20090;-72
2022/07/03 00:06:16;;;;;;;7.25;3.78;;;;;;;23.29;37.40;99488.50;5090809;28;20040;-71
2022/07/03 00:08:42;;;;;;;5.25;3.20;;;;;;;23.26;37.74;99471.91;5075434;28;20438;-72
2022/07/03 00:11:08;;;;;;;7.38;3.97;;;;;;;23.24;38.09;99468.56;5075420;28;20024;-72
2022/07/03 00:13:34;;;;;;;5.88;3.00;;;;;;;23.26;38.18;99461.09;5075147;28;20074;-71
2022/07/03 00:15:59;;;;;;;8.45;4.00;;;;;;;23.28;37.96;99453.63;5075089;28;20040;-72
2022/07/03 00:18:25;;;;;;;5.60;3.20;;;;;;;23.23;37.98;99442.59;5074840;28;20517;-72
2022/07/03 00:21:00;;;;;;;5.68;3.50;;;;;;;23.21;38.54;99441.97;5075025;28;20059;-72
2022/07/03 00:23:29;;;;;;;9.95;3.22;;;;;;;23.16;38.29;99435.28;5074607;28;20028;-72
2022/07/03 00:25:55;;;;;;;7.10;3.67;;;;;;;23.17;38.44;99430.75;5075116;28;20119;-72
2022/07/03 00:28:20;;;;;;;4.63;3.10;;;;;;;23.14;38.36;99441.94;5075061;28;20107;-72
2022/07/03 00:30:48;;;;;;;11.85;4.25;;;;;;;23.14;38.95;99432.00;5075143;28;20514;-72
2022/07/03 00:33:15;;;;;;;6.82;3.60;;;;;;;23.12;38.47;99444.84;5074559;28;20029;-72
2022/07/03 00:35:42;;;;;;;5.82;3.30;;;;;;;23.16;38.60;99437.16;5074635;28;20070;-72
2022/07/03 00:38:08;;;;;;;5.45;3.90;;;;;;;23.13;38.83;99443.81;5074515;28;20024;-72
2022/07/03 00:40:33;;;;;;;6.93;3.70;;;;;;;23.14;38.54;99445.50;5074553;28;20399;-71
2022/07/03 00:42:59;;;;;;;6.93;3.92;;;;;;;23.19;38.46;99441.31;5074520;28;20020;-72
2022/07/03 00:45:26;;;;;;;6.00;3.13;;;;;;;23.21;38.51;99445.53;5074566;28;20494;-72
2022/07/03 00:47:52;;;;;;;8.50;3.75;;;;;;;23.25;38.46;99451.34;5074484;28;20032;-73
2022/07/03 00:50:24;;;;;;;8.48;3.28;;;;;;;23.27;38.40;99465.47;5075033;28;20373;-70
2022/07/03 00:52:52;;;;;;;7.47;2.95;;;;;;;23.22;38.85;99455.28;5074266;28;20511;-70
2022/07/03 00:55:17;;;;;;;7.15;3.30;;;;;;;23.23;38.58;99442.59;5073827;28;20491;-70
2022/07/03 00:57:47;;;;;;;5.63;3.63;;;;;;;23.24;38.72;99446.97;5073608;28;20071;-70
2022/07/03 01:00:17;;;;;;;5.72;3.20;;;;;;;23.23;39.02;99446.16;5074216;28;20483;-71
2022/07/03 01:02:42;;;;;;;8.07;3.63;;;;;;;23.17;39.52;99457.72;5074144;28;20063;-71
2022/07/03 01:05:07;;;;;;;6.25;3.05;;;;;;;23.13;39.25;99446.53;5074457;28;20059;-71
2022/07/03 01:07:39;;;;;;;11.98;3.75;;;;;;;23.13;39.43;99453.75;5074029;28;20487;-71
2022/07/03 01:10:28;;;;;;;7.05;3.47;;;;;;;23.04;39.87;99447.72;5074196;28;20036;-71
2022/07/03 01:12:56;;;;;;;8.05;3.80;;;;;;;22.96;40.14;99453.34;5054203;28;20041;-71
2022/07/03 01:15:39;;;;;;;6.63;3.33;;;;;;;22.98;39.68;99449.38;5054222;28;20071;-71
2022/07/03 01:18:42;;;;;;;6.32;3.08;;;;;;;22.95;39.89;99446.28;5053677;28;20060;-71
2022/07/03 01:21:23;;;;;;;3.88;3.03;;;;;;;22.96;39.69;99443.34;5055487;28;20048;-71
2022/07/03 01:24:00;;;;;;;6.40;3.38;;;;;;;22.96;39.75;99439.84;5073655;28;20503;-71
2022/07/03 01:26:30;;;;;;;9.73;3.65;;;;;;;23.00;39.38;99447.31;5073910;28;20033;-71
2022/07/03 01:29:03;;;;;;;8.00;3.78;;;;;;;23.01;40.06;99448.16;5073706;28;20035;-71
2022/07/03 01:31:30;;;;;;;5.82;3.65;;;;;;;22.96;40.52;99439.84;5073447;28;20123;-71
2022/07/03 01:33:58;;;;;;;11.63;3.88;;;;;;;22.93;41.14;99442.94;5073565;28;20039;-71
2022/07/03 01:36:25;;;;;;;5.57;2.95;;;;;;;22.86;40.76;99451.88;5073876;28;20384;-71
2022/07/03 01:38:50;;;;;;;11.43;3.58;;;;;;;22.85;41.34;99439.41;5073722;28;20102;-71
2022/07/03 01:41:16;;;;;;;7.05;3.58;;;;;;;22.88;40.77;99432.78;5073619;28;20036;-71
2022/07/03 01:43:52;;;;;;;6.38;3.58;;;;;;;22.92;40.60;99439.44;5073365;28;20054;-71
2022/07/03 01:46:20;;;;;;;7.13;3.17;;;;;;;22.96;40.47;99439.84;5073421;28;20033;-71
2022/07/03 01:48:49;;;;;;;6.43;3.17;;;;;;;22.95;40.71;99440.88;5073256;28;20028;-71
2022/07/03 01:51:16;;;;;;;4.13;3.25;;;;;;;22.94;40.67;99448.13;5073397;28;20139;-72
2022/07/03 01:53:49;;;;;;;6.55;3.50;;;;;;;22.93;41.27;99449.19;5073436;28;20567;-71
2022/07/03 01:56:17;;;;;;;7.20;3.55;;;;;;;22.95;41.18;99449.78;5073617;28;20033;-71
2022/07/03 01:58:42;;;;;;;5.43;2.75;;;;;;;23.00;40.68;99457.28;5073143;28;20082;-71
2022/07/03 02:01:21;;;;;;;4.90;3.25;;;;;;;22.99;40.85;99440.25;5073513;28;20032;-71
2022/07/03 02:03:57;;;;;;;6.80;3.45;;;;;;;23.07;41.70;99452.72;5073189;28;20448;-71
2022/07/03 02:06:49;;;;;;;8.80;3.47;;;;;;;23.08;42.07;99445.47;5072905;28;20066;-71
2022/07/03 02:09:22;;;;;;;8.20;3.22;;;;;;;23.06;41.62;99442.97;5072958;28;20125;-71
2022/07/03 02:11:47;;;;;;;4.00;2.97;;;;;;;23.07;41.11;99444.63;5072682;28;20036;-70
2022/07/03 02:14:14;;;;;;;3.83;2.88;;;;;;;23.12;41.16;99446.72;5073093;28;20112;-71
2022/07/03 02:17:20;;;;;;;5.10;3.00;;;;;;;23.17;40.89;99444.22;5072619;28;20245;-71
2022/07/03 02:20:04;;;;;;;8.82;3.30;;;;;;;23.17;42.07;99436.94;5072830;28;20028;-71
2022/07/03 02:22:59;;;;;;;6.60;3.53;;;;;;;23.08;43.08;99443.59;5073121;28;20391;-72
2022/07/03 02:25:34;;;;;;;6.65;3.00;;;;;;;23.02;42.91;99445.25;5072897;28;20048;-72
2022/07/03 02:28:18;;;;;;;5.45;3.40;;;;;;;23.04;42.88;99438.81;5072904;28;20040;-72
2022/07/03 02:30:50;;;;;;;5.65;3.72;;;;;;;23.02;42.69;99433.59;5072697;28;20040;-72
2022/07/03 02:33:21;;;;;;;4.90;3.40;;;;;;;23.13;42.74;99440.28;5072410;28;20058;-72
2022/07/03 02:35:50;;;;;;;9.20;3.10;;;;;;;23.20;43.00;99434.88;5072878;28;20067;-72
2022/07/03 02:38:18;;;;;;;7.63;3.88;;;;;;;23.20;43.09;99433.06;5072591;28;20032;-72
2022/07/03 02:40:43;;;;;;;8.40;3.25;;;;;;;23.21;43.52;99437.44;5072472;28;20518;-71
2022/07/03 02:43:28;;;;;;;4.57;3.90;;;;;;;23.19;44.00;99438.63;5072254;28;20050;-71
2022/07/03 02:46:48;;;;;;;8.65;3.42;;;;;;;23.19;43.80;99442.16;5073031;28;20032;-72
2022/07/03 02:48:54;;;;;;;7.63;3.45;;;;;;;23.22;43.54;99444.50;5072318;28;20032;-73
2022/07/03 02:51:23;;;;;;;5.97;3.38;;;;;;;23.22;43.73;99438.25;5072665;28;20039;-73
2022/07/03 02:54:02;;;;;;;6.70;2.92;;;;;;;23.15;43.61;99433.66;5072753;28;20079;-73
2022/07/03 02:56:56;;;;;;;4.03;3.00;;;;;;;23.16;43.61;99432.59;5072633;28;20411;-73
2022/07/03 02:59:56;;;;;;;3.03;2.58;;;;;;;23.16;43.25;99432.59;5063989;28;20093;-72
2022/07/03 03:02:46;;;;;;;8.20;3.60;;;;;;;23.11;43.51;99435.09;5072490;28;20025;-72
2022/07/03 03:05:20;;;;;;;4.43;2.92;;;;;;;23.08;43.04;99440.91;5072538;28;20056;-72
2022/07/03 03:08:04;;;;;;;6.10;3.72;;;;;;;23.10;43.16;99429.88;5072180;28;20090;-73
2022/07/03 03:10:37;;;;;;;4.90;3.13;;;;;;;23.09;42.95;99434.47;5072470;28;20041;-72
2022/07/03 03:13:16;;;;;;;3.92;3.05;;;;;;;23.11;42.96;99429.69;5071390;28;20373;-72
2022/07/03 03:16:03;;;;;;;5.63;2.70;;;;;;;23.11;42.96;99427.00;5072482;28;20115;-72
2022/07/03 03:18:29;;;;;;;6.15;2.88;;;;;;;23.17;42.54;99426.16;5071978;28;20432;-72
2022/07/03 03:21:00;;;;;;;6.05;3.30;;;;;;;23.29;42.53;99433.69;5075625;28;20029;-72
2022/07/03 03:23:48;;;;;;;5.80;3.70;;;;;;;23.39;42.50;99434.09;5075857;28;20115;-72
2022/07/03 03:26:17;;;;;;;3.97;3.20;;;;;;;23.47;42.21;99427.66;5075943;28;20033;-72
2022/07/03 03:28:42;;;;;;;3.75;3.15;;;;;;;23.62;42.18;99432.84;5076204;28;20395;-72
2022/07/03 03:31:09;;;;;;;4.13;3.40;;;;;;;23.77;42.15;99428.03;5076367;28;20024;-71
2022/07/03 03:33:40;;;;;;;5.03;3.08;;;;;;;23.84;42.00;99425.31;5075697;28;20111;-71
2022/07/03 03:36:12;;;;;;;4.53;2.83;;;;;;;23.90;41.72;99429.91;5076380;28;20036;-71
2022/07/03 03:38:38;;;;;;;4.82;3.08;;;;;;;23.94;41.83;99430.31;5076090;28;20488;-71
2022/07/03 03:41:05;;;;;;;4.55;3.42;;;;;;;23.99;41.67;99421.59;5076015;28;20076;-72
2022/07/03 03:43:31;;;;;;;4.80;3.67;;;;;;;24.05;41.77;99429.66;5075381;28;20032;-71
2022/07/03 03:45:57;;;;;;;5.47;3.65;;;;;;;24.08;41.33;99423.84;5075821;28;20537;-72
2022/07/03 03:48:24;;;;;;;6.15;3.75;;;;;;;24.13;41.56;99425.09;5075738;28;20033;-72
2022/07/03 03:50:49;;;;;;;4.13;2.95;;;;;;;24.17;41.52;99423.63;5076110;28;20506;-71
2022/07/03 03:53:17;;;;;;;6.20;3.08;;;;;;;24.29;41.21;99418.38;5075475;28;20032;-71
2022/07/03 03:56:09;;;;;;;7.57;3.33;;;;;;;24.48;40.92;99424.75;5075707;28;20081;-72
2022/07/03 03:58:37;;;;;;;3.65;2.83;;;;;;;24.49;40.91;99420.97;5075374;28;20045;-72
2022/07/03 04:01:05;;;;;;;10.05;4.18;;;;;;;24.38;41.49;99415.22;5075901;28;20032;-71
2022/07/03 04:03:32;;;;;;;4.82;3.42;;;;;;;24.29;41.46;99416.50;5075414;28;20086;-71
2022/07/03 04:05:57;;;;;;;5.10;3.42;;;;;;;24.22;41.79;99411.13;5075493;28;20115;-72
2022/07/03 04:08:24;;;;;;;6.05;2.95;;;;;;;24.17;41.92;99407.41;5075195;28;20124;-72
2022/07/03 04:10:50;;;;;;;7.45;3.30;;;;;;;24.14;41.85;99407.84;5075369;28;20111;-72
2022/07/03 04:13:17;;;;;;;6.10;3.42;;;;;;;24.17;41.91;99410.94;5075334;28;20395;-73
2022/07/03 04:15:43;;;;;;;5.57;3.13;;;;;;;24.19;41.87;99410.75;5075316;28;20032;-73
2022/07/03 04:18:08;;;;;;;4.40;3.20;;;;;;;24.17;41.78;99408.22;5074894;28;20052;-73
2022/07/03 04:20:35;;;;;;;11.02;3.30;;;;;;;24.19;41.94;99416.97;5075288;28;20083;-71
2022/07/03 04:23:00;;;;;;;5.68;3.15;;;;;;;24.21;41.70;99416.72;5074714;28;20503;-71
2022/07/03 04:25:26;;;;;;;8.10;3.65;;;;;;;24.20;41.94;99420.47;5074910;28;20066;-72
2022/07/03 04:27:52;;;;;;;5.80;3.08;;;;;;;24.24;41.59;99419.00;5075115;28;20115;-71
2022/07/03 04:30:18;;;;;;;6.35;3.72;;;;;;;24.26;41.83;99414.22;5075109;28;20115;-71
2022/07/03 04:32:43;;;;;;;4.25;3.13;;;;;;;24.24;41.92;99419.00;5074757;28;20028;-72
2022/07/03 04:35:09;;;;;;;7.82;4.10;;;;;;;24.20;42.45;99412.38;5075009;28;20089;-72
2022/07/03 04:37:35;;;;;;;7.90;3.95;;;;;;;24.24;42.46;99413.59;5074590;28;20039;-72
2022/07/03 04:40:01;;;;;;;7.45;3.83;;;;;;;24.32;41.91;99415.25;5074885;28;20040;-71
2022/07/03 04:42:26;;;;;;;4.32;3.53;;;;;;;24.55;41.98;99413.91;5072995;28;20036;-72
2022/07/03 04:44:52;;;;;;;10.27;3.55;;;;;;;24.81;41.34;99416.50;5074889;28;20032;-72
2022/07/03 04:47:17;;;;;;;6.60;3.47;;;;;;;25.04;40.65;99416.97;5074263;28;20380;-72
2022/07/03 04:49:42;;;;;;;6.25;3.45;;;;;;;25.25;40.23;99413.88;5074620;28;20038;-72
2022/07/03 04:52:09;;;;;;;4.85;3.50;;;;;;;25.44;39.93;99422.91;5074246;28;20074;-72
2022/07/03 04:54:35;;;;;;;12.43;4.30;;;;;;;25.53;40.27;99420.75;5074359;28;20035;-72
2022/07/03 04:57:00;;;;;;;5.60;4.07;;;;;;;25.59;40.38;99414.47;5074247;28;20036;-72
2022/07/03 04:59:26;;;;;;;5.35;3.53;;;;;;;25.73;39.70;99412.44;5074859;28;20028;-73
2022/07/03 05:01:51;;;;;;;5.68;3.60;;;;;;;25.88;39.48;99409.38;5074346;28;20086;-73
2022/07/03 05:04:17;;;;;;;5.55;3.40;;;;;;;26.04;39.20;99407.94;5074417;28;20044;-73
2022/07/03 05:06:42;;;;;;;4.70;3.67;;;;;;;26.17;39.40;99414.31;5073980;28;20032;-73
2022/07/03 05:09:08;;;;;;;10.30;4.72;;;;;;;26.25;39.72;99413.19;5074214;28;20401;-73
2022/07/03 05:11:35;;;;;;;4.93;3.80;;;;;;;26.36;39.32;99407.00;5073715;28;20028;-73
2022/07/03 05:14:01;;;;;;;4.03;3.15;;;;;;;26.47;38.55;99405.41;5073947;28;20411;-73
2022/07/03 05:16:27;;;;;;;5.60;3.95;;;;;;;26.58;38.30;99399.19;5073906;28;20484;-73
2022/07/03 05:18:53;;;;;;;6.68;3.47;;;;;;;26.71;38.31;99400.88;5073847;28;20039;-74
2022/07/03 05:21:18;;;;;;;4.25;3.72;;;;;;;26.76;38.16;99403.72;5073767;28;20081;-74
2022/07/03 05:23:44;;;;;;;5.20;3.88;;;;;;;26.85;38.37;99404.25;5074197;28;20101;-73
2022/07/03 05:26:09;;;;;;;5.63;3.72;;;;;;;26.91;38.04;99405.22;5073886;28;20039;-73
2022/07/03 05:28:35;;;;;;;10.93;3.75;;;;;;;27.02;37.63;99398.97;5073911;28;20035;-74
2022/07/03 05:31:00;;;;;;;6.25;4.15;;;;;;;27.14;37.31;99404.44;5073522;28;20508;-74
2022/07/03 05:33:26;;;;;;;5.75;4.25;;;;;;;27.23;37.07;99404.94;5073353;28;20031;-73
2022/07/03 05:35:51;;;;;;;8.40;3.97;;;;;;;27.29;37.05;99412.13;5073724;28;20399;-74
2022/07/03 05:39:31;;;;;;;4.30;3.63;;;;;;;27.36;36.65;99399.28;5073362;28;20122;-73
2022/07/03 05:41:02;;;;;;;5.43;3.58;;;;;;;27.47;36.87;99404.97;5073263;28;20072;-73
2022/07/03 05:43:27;;;;;;;6.70;3.60;;;;;;;27.50;36.56;99401.81;5072417;28;20025;-73
2022/07/03 05:45:53;;;;;;;5.70;4.13;;;;;;;27.53;36.56;99399.44;5073630;28;20074;-73
2022/07/03 05:48:18;;;;;;;6.00;4.03;;;;;;;27.55;36.82;99401.94;5073798;28;20034;-73
2022/07/03 05:50:44;;;;;;;10.90;3.92;;;;;;;27.55;36.65;99402.75;5073519;28;20076;-73
2022/07/03 05:53:09;;;;;;;8.32;4.55;;;;;;;27.56;36.91;99395.44;5073188;28;20471;-73
2022/07/03 05:55:35;;;;;;;5.20;3.90;;;;;;;27.52;36.96;99399.69;5073497;28;20054;-73
2022/07/03 05:58:00;;;;;;;7.63;4.15;;;;;;;27.49;36.89;99392.00;5073165;28;20078;-73
2022/07/03 06:00:26;;;;;;;5.88;3.85;;;;;;;27.47;37.14;99389.53;5073358;28;20032;-73
2022/07/03 06:02:51;;;;;;;5.93;4.65;;;;;;;27.51;37.12;99400.75;5073385;28;20033;-73
2022/07/03 06:05:17;;;;;;;10.88;4.75;;;;;;;27.47;37.25;99400.38;5073270;28;20032;-73
2022/07/03 06:07:42;;;;;;;5.82;3.97;;;;;;;27.41;37.33;99395.84;5072932;28;20074;-73
2022/07/03 06:10:08;;;;;;;9.85;5.20;;;;;;;27.36;38.37;99393.84;5072904;28;20043;-73
2022/07/03 06:12:33;;;;;;;7.00;4.00;;;;;;;27.31;37.88;99395.63;5072921;28;20047;-73
2022/07/03 06:14:59;;;;;;;12.82;4.38;;;;;;;27.27;38.40;99396.09;5073457;28;20047;-73
2022/07/03 06:17:24;;;;;;;6.88;3.88;;;;;;;27.23;37.76;99384.03;5072778;28;20056;-73
2022/07/03 06:19:50;;;;;;;5.18;4.05;;;;;;;27.19;37.73;99393.72;5073274;28;20062;-73
2022/07/03 06:22:15;;;;;;;6.88;4.47;;;;;;;27.16;37.95;99393.34;5072540;28;20059;-73
2022/07/03 06:24:41;;;;;;;7.82;4.25;;;;;;;27.10;38.19;99401.38;5072830;28;20036;-73
2022/07/03 06:27:06;;;;;;;7.70;4.85;;;;;;;26.87;39.53;99394.00;5072579;28;20039;-74
2022/07/03 06:29:31;;;;;;;8.18;5.10;;;;;;;26.66;39.93;99390.72;5072754;28;20032;-73
2022/07/03 06:31:57;;;;;;;7.55;4.32;;;;;;;26.45;39.75;99389.34;5072681;28;20031;-73
2022/07/03 06:34:22;;;;;;;10.02;4.50;;;;;;;26.32;39.90;99390.31;5072902;28;20036;-73
2022/07/03 06:36:48;;;;;;;6.15;4.10;;;;;;;26.23;39.58;99388.19;5072919;28;20032;-73
2022/07/03 06:39:13;;;;;;;7.45;4.35;;;;;;;26.16;40.10;99385.56;5072814;28;20089;-74
2022/07/03 06:41:39;;;;;;;8.65;4.57;;;;;;;26.11;40.89;99391.63;5072554;28;20044;-74
2022/07/03 06:44:04;;;;;;;13.27;4.43;;;;;;;26.07;40.32;99389.56;5072572;28;20033;-74
2022/07/03 06:46:30;;;;;;;7.47;4.53;;;;;;;26.01;40.59;99388.59;5072446;28;20390;-74
2022/07/03 06:48:55;;;;;;;9.82;4.57;;;;;;;25.97;41.28;99385.53;5072464;28;20028;-74
2022/07/03 06:51:21;;;;;;;7.18;4.10;;;;;;;25.97;40.90;99387.38;5072654;28;20483;-74
2022/07/03 06:53:46;;;;;;;6.78;4.50;;;;;;;25.90;40.79;99388.31;5072683;28;20052;-72
2022/07/03 06:56:11;;;;;;;8.57;4.68;;;;;;;25.90;41.04;99398.31;5076645;28;20046;-74
2022/07/03 06:58:37;;;;;;;6.18;4.65;;;;;;;25.87;42.00;99396.06;5076926;28;20050;-74
2022/07/03 07:01:02;;;;;;;4.90;4.40;;;;;;;25.87;41.77;99405.00;5076613;28;20028;-73
2022/07/03 07:03:28;;;;;;;9.80;4.80;;;;;;;25.87;41.27;99404.19;5076172;28;20500;-73
2022/07/03 07:05:53;;;;;;;9.75;5.03;;;;;;;25.85;41.32;99393.56;5076886;28;20040;-73
2022/07/03 07:08:19;;;;;;;10.05;4.78;;;;;;;25.83;41.49;99401.09;5076169;28;20032;-73
2022/07/03 07:10:44;;;;;;;10.98;5.50;;;;;;;25.81;41.67;99396.94;5076227;28;20028;-74
2022/07/03 07:13:10;;;;;;;9.35;5.65;;;;;;;25.80;41.52;99401.56;5076246;28;20060;-74
2022/07/03 07:15:35;;;;;;;11.68;5.18;;;;;;;25.79;42.25;99399.06;5076259;28;20033;-73
2022/07/03 07:18:00;;;;;;;8.88;4.90;;;;;;;25.82;42.26;99398.63;5075845;28;20052;-73
2022/07/03 07:20:26;;;;;;;9.52;5.22;;;;;;;25.80;41.99;99395.28;5076327;28;20078;-73
2022/07/03 07:22:51;;;;;;;6.35;4.18;;;;;;;25.79;41.51;99396.34;5075752;28;20503;-73
2022/07/03 07:25:17;;;;;;;8.40;4.68;;;;;;;25.78;41.39;99395.53;5076236;28;20039;-73
2022/07/03 07:27:42;;;;;;;9.00;5.25;;;;;;;25.77;41.81;99395.75;5075827;28;20442;-73
2022/07/03 07:30:08;;;;;;;12.18;5.18;;;;;;;25.78;42.37;99391.97;5076167;28;20034;-73
2022/07/03 07:32:34;;;;;;;16.55;4.85;;;;;;;25.80;41.77;99393.44;5075919;28;20032;-73
2022/07/03 07:34:59;;;;;;;9.60;4.70;;;;;;;25.80;41.50;99388.00;5076117;28;20067;-73
2022/07/03 07:37:24;;;;;;;8.93;4.82;;;;;;;25.78;41.69;99390.13;5075793;28;20399;-73
2022/07/03 07:39:50;;;;;;;8.85;4.93;;;;;;;25.79;41.37;99394.47;5076029;28;20028;-73
2022/07/03 07:42:16;;;;;;;11.98;5.47;;;;;;;25.78;41.43;99383.84;5075552;28;20445;-73
2022/07/03 07:44:42;;;;;;;7.32;4.80;;;;;;;25.77;41.70;99384.91;5075781;28;20040;-73
2022/07/03 07:47:07;;;;;;;10.55;5.18;;;;;;;25.76;41.91;99384.09;5075633;28;20071;-73
2022/07/03 07:49:33;;;;;;;9.82;5.22;;;;;;;25.78;42.43;99394.69;5075987;28;20029;-73
2022/07/03 07:51:58;;;;;;;10.60;5.45;;;;;;;25.83;42.64;99392.97;5075363;28;20105;-73
2022/07/03 07:54:24;;;;;;;8.13;4.50;;;;;;;25.88;42.27;99390.41;5075601;28;20020;-73
2022/07/03 07:56:50;;;;;;;11.80;5.05;;;;;;;25.88;41.93;99389.59;5075226;28;20510;-74
2022/07/03 07:59:15;;;;;;;11.90;5.35;;;;;;;25.87;42.14;99388.75;5075660;28;20020;-73
2022/07/03 08:07:08;;;;;;;7.20;4.75;;;;;;;25.88;42.35;99385.00;5075500;28;20123;-74
2022/07/03 08:09:34;;;;;;;15.00;6.40;;;;;;;25.93;42.15;99391.63;5075426;28;20539;-73
2022/07/03 08:11:59;;;;;;;13.07;5.47;;;;;;;25.97;41.79;99387.38;5075174;28;20032;-73
2022/07/03 08:14:25;;;;;;;7.65;4.30;;;;;;;26.02;41.52;99388.38;5075708;28;20024;-73
2022/07/03 08:16:51;;;;;;;4.93;4.03;;;;;;;26.02;40.64;99388.38;5074812;28;20171;-73
2022/07/03 08:19:16;;;;;;;5.70;4.40;;;;;;;26.07;40.08;99393.13;5075269;28;20387;-73
2022/07/03 08:21:42;;;;;;;8.23;4.38;;;;;;;26.10;39.84;99391.84;5074903;28;20056;-73
2022/07/03 08:24:08;;;;;;;7.50;5.30;;;;;;;26.11;39.75;99393.53;5075028;28;20036;-73
2022/07/03 08:26:33;;;;;;;6.45;4.65;;;;;;;26.13;39.56;99392.25;5074853;28;20043;-74
2022/07/03 08:28:59;;;;;;;5.32;4.00;;;;;;;26.13;39.49;99391.41;5075179;28;20036;-72
2022/07/03 08:31:24;;;;;;;5.40;3.92;;;;;;;26.13;39.83;99407.69;5074988;28;20040;-73
2022/07/03 08:33:50;;;;;;;7.50;4.93;;;;;;;26.15;39.47;99389.31;5075162;28;20041;-73
2022/07/03 08:36:15;;;;;;;5.25;4.35;;;;;;;26.16;39.09;99394.50;5074584;28;20495;-73
2022/07/03 08:38:41;;;;;;;4.90;4.40;;;;;;;26.18;39.04;99400.53;5074886;28;20058;-73
2022/07/03 08:41:08;;;;;;;7.22;4.57;;;;;;;26.21;38.88;99385.69;5074816;28;20442;-73
2022/07/03 08:43:34;;;;;;;4.65;4.18;;;;;;;26.20;38.93;99384.88;5074477;28;20033;-73
2022/07/03 08:46:02;;;;;;;4.88;4.38;;;;;;;26.19;39.06;99382.34;5074832;28;20696;-73
2022/07/03 08:48:29;;;;;;;6.50;4.18;;;;;;;26.20;38.89;99393.00;5074732;28;20028;-73
2022/07/03 08:50:56;;;;;;;4.75;4.03;;;;;;;26.23;38.66;99385.47;5074462;28;20115;-73
2022/07/03 08:53:23;;;;;;;8.48;4.05;;;;;;;26.20;38.90;99376.72;5074132;28;20024;-73
2022/07/03 08:55:49;;;;;;;8.10;4.43;;;;;;;26.19;38.84;99385.91;5074309;28;20040;-71
2022/07/03 08:58:15;;;;;;;7.43;5.10;;;;;;;26.19;39.07;99388.63;5074180;28;20028;-73
2022/07/03 09:00:41;;;;;;;4.93;4.20;;;;;;;26.21;38.87;99385.69;5074147;28;20094;-72
2022/07/03 09:03:10;;;;;;;5.85;4.43;;;;;;;26.24;39.18;99384.41;5074067;28;20115;-71
2022/07/03 09:05:35;;;;;;;7.72;4.75;;;;;;;26.27;39.21;99386.66;5074159;28;20032;-72
2022/07/03 09:08:02;;;;;;;4.53;4.03;;;;;;;26.31;39.02;99385.13;5074092;28;20438;-72
2022/07/03 09:10:28;;;;;;;10.82;4.82;;;;;;;26.30;39.07;99378.91;5073952;28;20037;-72
2022/07/03 09:12:55;;;;;;;6.70;4.80;;;;;;;26.30;39.10;99380.78;5073852;28;20035;-72
2022/07/03 09:15:21;;;;;;;5.13;4.57;;;;;;;26.30;38.80;99381.63;5074144;28;20108;-71
2022/07/03 09:17:59;;;;;;;8.93;4.85;;;;;;;26.30;39.12;99383.47;5072877;28;20048;-72
2022/07/03 09:20:36;;;;;;;5.90;4.68;;;;;;;26.35;39.06;99381.75;5073853;28;20090;-71
2022/07/03 09:23:22;;;;;;;6.25;5.00;;;;;;;26.35;38.90;99380.94;5073767;28;20029;-72
2022/07/03 09:25:59;;;;;;;4.70;4.10;;;;;;;26.27;38.93;99382.06;5053674;28;20483;-72
2022/07/03 09:28:43;;;;;;;5.90;4.93;;;;;;;26.27;39.09;99378.50;5053574;28;20039;-72
2022/07/03 09:31:13;;;;;;;7.15;4.53;;;;;;;26.31;38.98;99380.56;5053695;28;20082;-72
2022/07/03 09:34:11;;;;;;;11.35;5.22;;;;;;;26.31;38.95;99377.84;5071198;28;20108;-71
2022/07/03 09:36:42;;;;;;;8.80;4.57;;;;;;;26.30;38.85;99372.63;5050518;28;20040;-71
2022/07/03 09:39:15;;;;;;;5.55;4.57;;;;;;;26.30;39.08;99375.34;5074038;28;20066;-72
2022/07/03 09:41:58;;;;;;;8.13;4.70;;;;;;;26.33;39.12;99380.31;5073431;28;20029;-72
2022/07/03 09:44:40;;;;;;;7.95;4.65;;;;;;;26.34;39.44;99379.28;5073837;28;20032;-72
2022/07/03 09:47:19;;;;;;;5.07;4.28;;;;;;;26.37;39.26;99376.09;5072937;28;20035;-71
2022/07/03 09:49:49;;;;;;;9.98;4.63;;;;;;;26.41;39.19;99380.00;5057826;28;20044;-72
2022/07/03 09:52:38;;;;;;;6.35;4.75;;;;;;;26.37;38.98;99373.41;5071760;28;20098;-72
2022/07/03 09:55:09;;;;;;;4.68;4.28;;;;;;;26.32;38.96;99378.66;5072353;28;20045;-72
2022/07/03 09:57:37;;;;;;;6.70;4.15;;;;;;;26.34;39.33;99381.97;5073011;28;20111;-72
2022/07/03 10:00:21;;;;;;;8.45;4.68;;;;;;;26.35;39.18;99379.03;5069815;28;20491;-72
2022/07/03 10:03:05;;;;;;;5.63;4.57;;;;;;;26.40;39.12;99369.38;5067144;28;20037;-72
2022/07/03 10:05:41;;;;;;;6.38;4.82;;;;;;;26.40;39.50;99366.66;5057686;28;20039;-72
2022/07/03 10:08:19;;;;;;;6.38;4.10;;;;;;;26.41;38.92;99369.13;5052616;28;20048;-72
2022/07/03 10:10:46;;;;;;;7.53;4.78;;;;;;;26.40;39.31;99367.47;5059228;28;20483;-72
2022/07/03 10:13:13;;;;;;;5.47;4.88;;;;;;;26.41;39.26;99373.75;5070729;28;20033;-72
2022/07/03 10:15:39;;;;;;;5.97;4.90;;;;;;;26.39;38.83;99371.28;5073056;28;20115;-72
2022/07/03 10:18:10;;;;;;;6.18;4.65;;;;;;;26.38;38.79;99360.63;5072601;28;20053;-72
2022/07/03 10:20:39;;;;;;;7.13;4.60;;;;;;;26.36;39.21;99374.44;5056997;28;20033;-72
2022/07/03 10:23:05;;;;;;;4.80;4.10;;;;;;;26.37;38.74;99359.84;5072048;28;20071;-72
2022/07/03 10:25:31;;;;;;;7.70;4.60;;;;;;;26.34;38.78;99360.28;5072813;28;20056;-72
2022/07/03 10:27:57;;;;;;;5.32;4.22;;;;;;;26.32;38.59;99362.38;5070664;28;20025;-72
2022/07/03 10:30:24;;;;;;;6.88;4.20;;;;;;;26.36;38.30;99371.72;5066677;28;20029;-72
2022/07/03 10:32:53;;;;;;;5.05;4.00;;;;;;;26.46;37.94;99360.34;5052568;28;20102;-72
2022/07/03 10:35:34;;;;;;;8.65;4.15;;;;;;;26.50;37.21;99362.34;5052903;28;20451;-72
2022/07/03 10:38:02;;;;;;;6.75;3.72;;;;;;;26.56;37.32;99367.91;5052507;28;20031;-73
2022/07/03 10:46:22;;;;;;;10.00;3.78;;;;;;;26.54;36.79;99372.75;5071736;28;20089;-72
2022/07/03 10:48:51;;;;;;;8.80;3.60;;;;;;;26.53;36.91;99362.97;5070686;28;20036;-72
2022/07/03 10:51:16;;;;;;;4.25;3.47;;;;;;;26.50;36.92;99356.09;5072900;28;20119;-72
2022/07/03 10:53:42;;;;;;;8.35;4.30;;;;;;;26.48;36.96;99372.59;5072305;28;20154;-72
2022/07/03 10:56:07;;;;;;;5.97;3.90;;;;;;;26.52;37.03;99372.16;5062354;28;20527;-73
2022/07/03 10:58:59;;;;;;;8.57;4.07;;;;;;;26.62;36.20;99369.69;5070522;28;20105;-72
2022/07/03 11:01:29;;;;;;;4.60;2.90;;;;;;;26.66;35.64;99371.72;5070735;28;20043;-72
2022/07/03 11:03:59;;;;;;;6.35;3.33;;;;;;;26.69;34.90;99362.28;5072491;28;20032;-72
2022/07/03 11:06:56;;;;;;;4.67;3.77;;;;;;;26.70;34.92;99353.06;5072459;28;20081;-72
2022/07/03 11:09:22;;;;;;;6.78;3.50;;;;;;;26.70;35.27;99355.78;5059164;28;20047;-71
2022/07/03 11:11:57;;;;;;;4.32;3.92;;;;;;;26.72;35.51;99345.53;5063684;28;20044;-71
2022/07/03 11:14:32;;;;;;;5.40;3.42;;;;;;;26.74;35.54;99345.31;5051983;28;20033;-72
2022/07/03 11:17:18;;;;;;;4.32;3.88;;;;;;;26.74;35.64;99339.91;5052268;28;20495;-72
2022/07/03 11:20:23;;;;;;;7.10;3.90;;;;;;;26.73;35.98;99340.97;5052181;28;20108;-73
2022/07/03 11:22:52;;;;;;;4.13;3.67;;;;;;;26.74;35.92;99342.63;5052108;28;20045;-72
2022/07/03 11:25:18;;;;;;;7.53;3.80;;;;;;;26.70;35.93;99344.94;5027344;28;20529;-72
2022/07/03 11:27:44;;;;;;;4.32;3.90;;;;;;;26.73;35.67;99339.06;5062251;28;20029;-72
2022/07/03 11:30:12;;;;;;;3.88;3.20;;;;;;;26.72;35.85;99337.41;5062581;28;20064;-72
2022/07/03 11:32:49;;;;;;;10.32;3.92;;;;;;;26.71;35.91;99343.88;5072121;28;20511;-72
2022/07/03 11:35:54;;;;;;;7.15;3.80;;;;;;;26.68;35.66;99338.94;5072054;28;20062;-72
2022/07/03 11:38:28;;;;;;;8.95;3.38;;;;;;;26.70;35.31;99347.66;5072220;28;20090;-72
2022/07/03 11:40:55;;;;;;;4.97;3.78;;;;;;;26.74;35.24;99342.63;5059089;28;20044;-72
2022/07/03 11:43:21;;;;;;;4.95;3.50;;;;;;;26.75;35.14;99328.78;5064776;28;20074;-72
2022/07/03 11:45:47;;;;;;;3.92;3.33;;;;;;;26.77;35.29;99333.97;5075743;28;20458;-73
2022/07/03 11:48:16;;;;;;;4.50;3.33;;;;;;;26.73;35.32;99330.91;5075213;28;20115;-72
2022/07/03 11:50:44;;;;;;;4.57;3.08;;;;;;;26.74;34.64;99332.56;5075039;28;20033;-72
2022/07/03 11:53:30;;;;;;;7.18;3.10;;;;;;;26.82;34.14;99336.88;5055918;28;20037;-73
2022/07/03 11:55:57;;;;;;;4.13;3.13;;;;;;;26.82;34.53;99336.06;5056926;28;20037;-73